Nearby METAR Reports

 

KRUT - Rutland State, Vermont, USA
Distance from station: NW 10mi, 17km
Updated: Thu, 23-May-2019 12:56pm EDT
Mostly cloudy
Mostly cloudy
 Wind from SW
Wind: SW 9 mph , 15 km/h
Temperature: 75°F , 24°C
Dew Point: 54°F , 12°C
Humidity: 47%
Barometer: 29.96 inHg , 1014.6 hPa
Clouds: Mostly cloudy
Visibility: 10 miles , 16 km
Cloud details: Mostly cloudy 4900 ft
2019/05/23 16:56 KRUT 231656Z AUTO 22008KT 10SM BKN049 24/12 A2996 RMK AO2 SLP138 T02390117 $
KVSF - Springfield, Vermont, USA
Distance from station: ESE 15mi, 23km
Updated: Thu, 23-May-2019 12:54pm EDT
Clear
Clear
 Wind from SSE
Wind: SSE 9 mph , 15 km/h, Gust: 18 mph , 30 km/h
Temperature: 72°F , 22°C
Dew Point: 52°F , 11°C
Humidity: 50%
Barometer: 30.00 inHg , 1015.9 hPa
Clouds: Clear
Visibility: 10 miles , 16 km
2019/05/23 16:54 KVSF 231654Z AUTO 16008G16KT 10SM CLR 22/11 A3000 RMK AO2 SLP158 T02170106
 
KLEB - Lebanon, New Hampshire, USA
Distance from station: ENE 28mi, 46km
Updated: Thu, 23-May-2019 12:53pm EDT
Clear
Clear
 Wind from W
Wind: W 7 mph , 11 km/h
Temperature: 73°F , 23°C
Dew Point: 48°F , 9°C
Humidity: 41%
Barometer: 29.98 inHg , 1015.2 hPa
Clouds: Clear
Visibility: 10 miles , 16 km
2019/05/23 16:53 KLEB 231653Z 27006KT 10SM CLR 23/09 A2998 RMK AO2 SLP147 T02280094
K6B0 - Middlebury, Vermont, USA
Distance from station: NNW 42mi, 67km
Updated: Thu, 23-May-2019 1:35pm EDT
Clear
Clear
 Wind from SSW
Wind: SSW 7 mph , 11 km/h
Temperature: 72°F , 22°C
Dew Point: 54°F , 12°C
Humidity: 53%
Barometer: 29.94 inHg , 1013.9 hPa
Clouds: Clear
Visibility: 10 miles , 16 km
2019/05/23 17:35 K6B0 231735Z AUTO 20006KT 10SM CLR 22/12 A2994 RMK AO2 T02150115
 
KGFL - Glens Falls, New York, USA
Distance from station: W 42mi, 68km
Updated: Thu, 23-May-2019 12:53pm EDT
Clear
Clear
 Wind from varies
Wind: varies 5 mph , 7 km/h, Gust: 16 mph , 26 km/h
Temperature: 73°F , 23°C
Dew Point: 55°F , 13°C
Humidity: 53%
Barometer: 29.97 inHg , 1014.9 hPa
Clouds: Clear
Visibility: 10 miles , 16 km
2019/05/23 16:53 KGFL 231653Z AUTO VRB04G14KT 10SM CLR 23/13 A2997 RMK AO2 SLP148 T02280133
KDDH - Bennington, Vermont, USA
Distance from station: SSW 43mi, 69km
Updated: Thu, 23-May-2019 12:54pm EDT
Clear
Clear
 Wind from S
Wind: S 7 mph , 11 km/h
Temperature: 73°F , 23°C
Dew Point: 57°F , 14°C
Humidity: 57%
Barometer: 29.99 inHg , 1015.6 hPa
Clouds: Clear
Visibility: 10 miles , 16 km
2019/05/23 16:54 KDDH 231654Z AUTO 19006KT 10SM CLR 23/14 A2999 RMK AO2 SLP151 T02280139
 
KEEN - Keene/Dillant, New Hampshire, USA
Distance from station: SE 46mi, 73km
Updated: Thu, 23-May-2019 12:56pm EDT
Mostly cloudy
Mostly cloudy
 Wind from S
Wind: S 15 mph , 24 km/h
Temperature: 70°F , 21°C
Dew Point: 54°F , 12°C
Humidity: 57%
Barometer: 30.02 inHg , 1016.6 hPa
Clouds: Mostly cloudy
Visibility: 10 miles , 16 km
Cloud details: Mostly cloudy 3900 ft
2019/05/23 16:56 KEEN 231656Z AUTO 19013KT 10SM BKN039 21/12 A3002 RMK AO2 SLP170 T02110122 PNO $
KALB - Albany, New York, USA
Distance from station: SW 69mi, 111km
Updated: Thu, 23-May-2019 12:51pm EDT
Mostly cloudy
Mostly cloudy
 Wind from S
Wind: S 16 mph , 26 km/h, Gust: 23 mph , 37 km/h
Temperature: 72°F , 22°C
Dew Point: 55°F , 13°C
Humidity: 57%
Barometer: 30.00 inHg , 1015.9 hPa
Clouds: Mostly cloudy
Visibility: 10 miles , 16 km
Cloud details: Few Clouds 12000 ft
Mostly cloudy 25000 ft
2019/05/23 16:51 KALB 231651Z 17014G20KT 10SM FEW120 BKN250 22/13 A3000 RMK AO2 SLP157 T02220128
 
KSCH - Schenectady Airp, New York, USA
Distance from station: SW 69mi, 111km
Updated: Thu, 23-May-2019 11:59am EDT
NOT Current
Clear
Clear
 Wind from SSE
Wind: SSE 9 mph , 15 km/h
Temperature: 72°F , 22°C
Dew Point: 54°F , 12°C
Humidity: 53%
Barometer: 30.02 inHg , 1016.6 hPa
Clouds: Clear
Visibility: 15 miles , 24 km
2019/05/23 15:59 KSCH 231559Z 16008KT 15SM CLR 22/12 A3002
KLCI - Laconia Muni, New Hampshire, USA
Distance from station: E 69mi, 112km
Updated: Thu, 23-May-2019 12:56pm EDT
Clear
Clear
 Wind from NE
Wind: NE 9 mph , 15 km/h
Temperature: 64°F , 18°C
Dew Point: 48°F , 9°C
Humidity: 56%
Barometer: 30.03 inHg , 1016.9 hPa
Clouds: Clear
Visibility: 10 miles , 16 km
2019/05/23 16:56 KLCI 231656Z AUTO 04008KT 10SM CLR 18/09 A3003 RMK AO2 SLP172 T01780089
 
KBTV - Burlington, Vermont, USA
Distance from station: NNW 74mi, 120km
Updated: Thu, 23-May-2019 12:54pm EDT
Overcast
Overcast
 Wind from SSW
Wind: SSW 12 mph , 19 km/h
Temperature: 72°F , 22°C
Dew Point: 48°F , 9°C
Humidity: 44%
Barometer: 29.94 inHg , 1013.9 hPa
Clouds: Overcast
Visibility: 10 miles , 16 km
Cloud details: Few Clouds 5500 ft
Overcast 14000 ft
2019/05/23 16:54 KBTV 231654Z 20010KT 10SM FEW055 OVC140 22/09 A2994 RMK AO2 SLP137 T02170094
KMHT - Manchester, New Hampshire, USA
Distance from station: ESE 76mi, 123km
Updated: Thu, 23-May-2019 12:53pm EDT
Mostly cloudy
Mostly cloudy
 Wind from S
Wind: S 16 mph , 26 km/h, Gust: 23 mph , 37 km/h
Temperature: 72°F , 22°C
Dew Point: 50°F , 10°C
Humidity: 47%
Barometer: 30.01 inHg , 1016.3 hPa
Clouds: Mostly cloudy
Visibility: 10 miles , 16 km
Cloud details: Few Clouds 6500 ft
Mostly cloudy 17000 ft
Mostly cloudy 25000 ft
2019/05/23 16:53 KMHT 231653Z 18014G20KT 10SM FEW065 BKN170 BKN250 22/10 A3001 RMK AO2 SLP174 T02170100
 
KMVL - Morrisville, Vermont, USA
Distance from station: N 77mi, 124km
Updated: Thu, 23-May-2019 12:54pm EDT
Clear
Clear
 Wind from WSW
Wind: WSW 6 mph , 9 km/h
Temperature: 68°F , 20°C
Dew Point: 46°F , 8°C
Humidity: 46%
Barometer: 29.97 inHg , 1014.9 hPa
Clouds: Clear
Visibility: 10 miles , 16 km
2019/05/23 16:54 KMVL 231654Z AUTO 24005KT 10SM CLR 20/08 A2997 RMK AO2 SLP149 T02000083